PWSweather.com
Personal Weather Stations
Station Observations
KTXHOUST78
First Montrose Commons, Houston, TX 77006

First Montrose CommonsHouston, TX 77006

Lat: 29.7359886, Lon: -95.3870926

Elevation: 50

Station Type: Texas Weather Instruments WR-25

Latest ConditionsUpdated 3:50:02 AM CDT Tuesday, Oct 16, 2018
Currently Today's Max Today's Min Today's Average
Temperature 56.0°F13.3°C 58.0°F14.4°C 56.0°F13.3°C 57.0°F13.9°C
Dew Point 56.0°F13.3°C 58.0°F14.4°C 56.0°F13.3°C 57.0°F13.9°C
Winds 1.0 mph WNW1.6 kmh WNW 7.0 mph -11.3 kmh - - 3.1 mph 5.0 kmh
Wind Gusts 3.0 mph4.8 kmh 8.0 mph12.9 kmh - -
Humidity 100% 100% 100% 100%
Pressure 29.99 in1015.6 mb 30.04 in1017.3 mb 29.99 in1015.6 mb -
Hour Temp Dew Point Humidity Winds Wind Gusts Pressure Precip Precip Rate Daily Precip Total
03:50 AM 56.0°F13.3°C 56.0°F13.3°C 100% 1.0 mph WNW1.6 kmh WNW 3.0 mph4.8 kmh 29.99 in1015.6 mb 0.00 in0.0 mm 0.00 in0.0 mm 0.00 in0.0 mm
03:40 AM 56.0°F13.3°C 56.0°F13.3°C 100% 3.0 mph WSW4.8 kmh WSW 5.0 mph8.0 kmh 30.00 in1015.9 mb 0.00 in0.0 mm 0.00 in0.0 mm 0.00 in0.0 mm
03:30 AM 56.0°F13.3°C 56.0°F13.3°C 100% 5.0 mph 8.0 kmh 5.0 mph8.0 kmh 30.00 in1015.9 mb 0.00 in0.0 mm 0.00 in0.0 mm 0.00 in0.0 mm
03:20 AM 56.0°F13.3°C 56.0°F13.3°C 100% 3.0 mph NE4.8 kmh NE 5.0 mph8.0 kmh 30.01 in1016.3 mb 0.00 in0.0 mm 0.00 in0.0 mm 0.00 in0.0 mm
03:10 AM 56.0°F13.3°C 56.0°F13.3°C 100% 4.0 mph NW6.4 kmh NW 6.0 mph9.7 kmh 30.01 in1016.3 mb 0.00 in0.0 mm 0.00 in0.0 mm 0.00 in0.0 mm
03:00 AM 56.0°F13.3°C 56.0°F13.3°C 100% 1.0 mph NW1.6 kmh NW 4.0 mph6.4 kmh 30.01 in1016.3 mb 0.00 in0.0 mm 0.00 in0.0 mm 0.00 in0.0 mm
02:50 AM 56.0°F13.3°C 56.0°F13.3°C 100% 3.0 mph NNE4.8 kmh NNE 8.0 mph12.9 kmh 30.01 in1016.3 mb 0.00 in0.0 mm 0.00 in0.0 mm 0.00 in0.0 mm
02:40 AM 56.0°F13.3°C 56.0°F13.3°C 100% 5.0 mph NE8.0 kmh NE 8.0 mph12.9 kmh 30.02 in1016.6 mb 0.00 in0.0 mm 0.00 in0.0 mm 0.00 in0.0 mm
02:30 AM 57.0°F13.9°C 57.0°F13.9°C 100% 7.0 mph NW11.3 kmh NW 8.0 mph12.9 kmh 30.02 in1016.6 mb 0.00 in0.0 mm 0.00 in0.0 mm 0.00 in0.0 mm
02:20 AM 57.0°F13.9°C 57.0°F13.9°C 100% 4.0 mph NNW6.4 kmh NNW 7.0 mph11.3 kmh 30.02 in1016.6 mb 0.00 in0.0 mm 0.00 in0.0 mm 0.00 in0.0 mm
02:10 AM 57.0°F13.9°C 57.0°F13.9°C 100% 1.0 mph NNE1.6 kmh NNE 4.0 mph6.4 kmh 30.03 in1016.9 mb 0.00 in0.0 mm 0.00 in0.0 mm 0.00 in0.0 mm
02:00 AM 58.0°F14.4°C 58.0°F14.4°C 100% 1.0 mph NNW1.6 kmh NNW 4.0 mph6.4 kmh 30.03 in1016.9 mb 0.00 in0.0 mm 0.00 in0.0 mm 0.00 in0.0 mm
01:50 AM 58.0°F14.4°C 58.0°F14.4°C 100% 3.0 mph NE4.8 kmh NE 3.0 mph4.8 kmh 30.04 in1017.3 mb 0.00 in0.0 mm 0.00 in0.0 mm 0.00 in0.0 mm
01:40 AM 58.0°F14.4°C 58.0°F14.4°C 100% 3.0 mph 4.8 kmh 6.0 mph9.7 kmh 30.04 in1017.3 mb 0.00 in0.0 mm 0.00 in0.0 mm 0.00 in0.0 mm
01:30 AM 58.0°F14.4°C 58.0°F14.4°C 100% 1.0 mph 1.6 kmh 2.0 mph3.2 kmh 30.03 in1016.9 mb 0.00 in0.0 mm 0.00 in0.0 mm 0.00 in0.0 mm
01:20 AM 58.0°F14.4°C 58.0°F14.4°C 100% 4.0 mph NE6.4 kmh NE 4.0 mph6.4 kmh 30.03 in1016.9 mb 0.00 in0.0 mm 0.00 in0.0 mm 0.00 in0.0 mm
01:10 AM 58.0°F14.4°C 58.0°F14.4°C 100% 3.0 mph ENE4.8 kmh ENE 4.0 mph6.4 kmh 30.04 in1017.3 mb 0.00 in0.0 mm 0.00 in0.0 mm 0.00 in0.0 mm
01:00 AM 58.0°F14.4°C 58.0°F14.4°C 100% 4.0 mph 6.4 kmh 6.0 mph9.7 kmh 30.04 in1017.3 mb 0.00 in0.0 mm 0.00 in0.0 mm 0.00 in0.0 mm
12:50 AM 58.0°F14.4°C 58.0°F14.4°C 100% 3.0 mph NW4.8 kmh NW 5.0 mph8.0 kmh 30.04 in1017.3 mb 0.00 in0.0 mm 0.00 in0.0 mm 0.00 in0.0 mm
12:40 AM 58.0°F14.4°C 58.0°F14.4°C 100% 3.0 mph 4.8 kmh 4.0 mph6.4 kmh 30.04 in1017.3 mb 0.00 in0.0 mm 0.00 in0.0 mm 0.00 in0.0 mm
12:30 AM 57.0°F13.9°C 57.0°F13.9°C 100% 3.0 mph NNW4.8 kmh NNW 4.0 mph6.4 kmh 30.03 in1016.9 mb 0.00 in0.0 mm 0.00 in0.0 mm 0.00 in0.0 mm
12:20 AM 57.0°F13.9°C 57.0°F13.9°C 100% 3.0 mph 4.8 kmh 6.0 mph9.7 kmh 30.03 in1016.9 mb 0.00 in0.0 mm 0.00 in0.0 mm 0.00 in0.0 mm
12:10 AM 57.0°F13.9°C 57.0°F13.9°C 100% 3.0 mph WNW4.8 kmh WNW 6.0 mph9.7 kmh 30.04 in1017.3 mb 0.00 in0.0 mm 0.00 in0.0 mm 0.00 in0.0 mm
12:00 AM 57.0°F13.9°C 57.0°F13.9°C 100% 3.0 mph WNW4.8 kmh WNW 3.0 mph4.8 kmh 30.04 in1017.3 mb 0.00 in0.0 mm 0.00 in0.0 mm 0.00 in0.0 mm